Flight Track Log - Related Links

Times and Time Zones

All times are in EDT time to prevent confusion due to time zone crossing. See the DAL511 flight status page for this flight to view local times or setup timezone preferences in your user account.

Time Position Orientation Groundspeed Altitude Reporting Facility
EDT Latitude Longitude Course Direction KTS MPH feet Rate Location/Type
Tue 02:30:28 PM 30.4736 -81.6778 337° Northwest 159 183 700  Level Jacksonville Center
Tue 02:31:23 PM 30.4919 -81.6294 66° East 236 272 2,700 2,400 Climbing Jacksonville Center
Tue 02:32:03 PM 30.5275 -81.6408 345° North 247 284 4,500 3,420 Climbing Jacksonville Center
Tue 02:33:00 PM 30.7396 -81.8198 337° Northwest  Level FlightAware Approximate
Tue 02:33:03 PM 30.5947 -81.6786 334° Northwest 274 315 8,400  Level Jacksonville Center
Tue 02:34:00 PM 30.8262 -81.8631 337° Northwest  Level FlightAware Approximate
Tue 02:34:03 PM 30.6661 -81.7211 333° Northwest 279 321 11,200  Level Jacksonville Center
Tue 02:35:00 PM 30.9129 -81.9064 337° Northwest  Level FlightAware Approximate
Tue 02:35:03 PM 30.7544 -81.7686 335° Northwest 310 357 13,400  Level Jacksonville Center
Tue 02:36:03 PM 30.8486 -81.8231 334° Northwest 347 399 16,300 2,750 Climbing Jacksonville Center
Tue 02:37:03 PM 30.9453 -81.8800 333° Northwest 371 427 18,900 2,500 Climbing Jacksonville Center
Tue 02:38:03 PM 31.0481 -81.9397 334° Northwest 392 451 21,300 2,300 Climbing Jacksonville Center
Tue 02:39:03 PM 31.1528 -82.0017 333° Northwest 405 466 23,500 2,150 Climbing Jacksonville Center
Tue 02:40:03 PM 31.2619 -82.0664 333° Northwest 418 481 25,600 1,950 Climbing Jacksonville Center
Tue 02:41:03 PM 31.3731 -82.1333 333° Northwest 428 493 27,400 1,109 Climbing Jacksonville Center
Tue 02:43:07 PM 31.6169 -82.2683 335° Northwest 455 524 29,000 522 Climbing Atlanta Center
Tue 02:44:07 PM 31.7306 -82.3369 333° Northwest 455 524 29,000  Level Atlanta Center
Tue 02:45:07 PM 31.8442 -82.4033 334° Northwest 455 524 29,000  Level Atlanta Center
Tue 02:46:07 PM 31.9558 -82.4722 332° Northwest 455 524 29,000  Level Atlanta Center
Tue 02:47:07 PM 32.0444 -82.5589 320° Northwest 455 524 29,000  Level Atlanta Center
Tue 02:48:07 PM 32.1375 -82.6556 319° Northwest 455 524 29,000  Level Atlanta Center
Tue 02:49:07 PM 32.2325 -82.7547 319° Northwest 455 524 29,000  Level Atlanta Center
Tue 02:50:07 PM 32.3275 -82.8567 318° Northwest 450 518 29,000  Level Atlanta Center
Tue 02:51:07 PM 32.4203 -82.9536 319° Northwest 450 518 29,000  Level Atlanta Center
Tue 02:52:07 PM 32.5128 -83.0511 318° Northwest 450 518 29,000 -200 Level Atlanta Center
Tue 02:53:07 PM 32.6033 -83.1511 317° Northwest 450 518 28,600 -1,150 Descending Atlanta Center
Tue 02:54:07 PM 32.6981 -83.2514 318° Northwest 450 518 26,700 -1,400 Descending Atlanta Center
Tue 02:55:07 PM 32.7947 -83.3544 318° Northwest 450 518 25,800 -1,050 Descending Atlanta Center
Tue 02:56:07 PM 32.8892 -83.4575 318° Northwest 450 518 24,600 -2,150 Descending Atlanta Center
Tue 02:57:07 PM 32.9814 -83.5558 318° Northwest 450 518 21,500 -3,100 Descending Atlanta Center
Tue 02:58:07 PM 33.0797 -83.6594 319° Northwest 438 504 18,400 -2,950 Descending Atlanta Center
Tue 02:59:07 PM 33.1636 -83.7508 318° Northwest 423 487 15,600 -2,200 Descending Atlanta Center
Tue 03:00:07 PM 33.2389 -83.8475 313° West 401 461 14,000 -1,350 Descending Atlanta Center
Tue 03:01:07 PM 33.3058 -83.9444 310° West 382 440 12,900 -950 Descending Atlanta Center
Tue 03:02:07 PM 33.3581 -84.0314 306° West 369 425 12,100 -450 Descending Atlanta Center
Tue 03:03:07 PM 33.4206 -84.1186 311° West 356 410 12,000 -45 Descending Atlanta Center
Tue 03:04:21 PM 33.5000 -84.2333 310° West 340 391 12,000 -141 Level Atlanta TRACON
Tue 03:05:15 PM 33.5333 -84.3167 296° West 290 334 11,700 -895 Descending Atlanta TRACON
Tue 03:06:15 PM 33.5500 -84.4000 284° West 262 302 10,300 -1,700 Descending Atlanta TRACON
Tue 03:07:15 PM 33.5500 -84.4833 270° West 251 289 8,300 -1,850 Descending Atlanta TRACON
Tue 03:08:15 PM 33.5500 -84.5667 270° West 237 273 6,600 -1,500 Descending Atlanta TRACON
Tue 03:09:15 PM 33.5500 -84.6333 270° West 197 227 5,300 -1,421 Descending Atlanta TRACON
Tue 03:10:09 PM 33.5833 -84.6333 360° North 204 235 3,900 -1,556 Descending Atlanta TRACON

Login

Don't have an account? Register now (free) for customized features, flight alerts, and more!